sensor_id;sensor_type;location;lat;lon;timestamp;pressure;altitude;pressure_sealevel;temperature;humidity
41632;BME280;37452;51.938;4.624;2023-05-12T00:02:23;76885.25;;;-142.75;100.00
41632;BME280;37452;51.938;4.624;2023-05-12T00:04:48;76881.31;;;-142.75;100.00
41632;BME280;37452;51.938;4.624;2023-05-12T00:07:14;76885.25;;;-142.75;100.00
41632;BME280;37452;51.938;4.624;2023-05-12T00:09:39;76877.38;;;-142.75;100.00
41632;BME280;37452;51.938;4.624;2023-05-12T00:12:05;76885.25;;;-142.75;100.00
41632;BME280;37452;51.938;4.624;2023-05-12T00:14:31;76885.25;;;-142.75;100.00
41632;BME280;37452;51.938;4.624;2023-05-12T00:16:56;76887.22;;;-142.75;100.00
41632;BME280;37452;51.938;4.624;2023-05-12T00:19:21;76897.06;;;-142.75;100.00
41632;BME280;37452;51.938;4.624;2023-05-12T00:21:46;76889.19;;;-142.75;100.00
41632;BME280;37452;51.938;4.624;2023-05-12T00:24:12;76906.91;;;-142.75;100.00
41632;BME280;37452;51.938;4.624;2023-05-12T00:26:38;76912.81;;;-142.75;100.00
41632;BME280;37452;51.938;4.624;2023-05-12T00:29:03;76920.69;;;-142.75;100.00
41632;BME280;37452;51.938;4.624;2023-05-12T00:31:29;76920.69;;;-142.75;100.00
41632;BME280;37452;51.938;4.624;2023-05-12T00:33:54;76916.75;;;-142.75;100.00
41632;BME280;37452;51.938;4.624;2023-05-12T00:36:19;76920.69;;;-142.75;100.00
41632;BME280;37452;51.938;4.624;2023-05-12T00:38:45;76944.31;;;-142.75;100.00
41632;BME280;37452;51.938;4.624;2023-05-12T00:41:10;76946.28;;;-142.75;100.00
41632;BME280;37452;51.938;4.624;2023-05-12T00:43:35;76952.19;;;-142.75;100.00
41632;BME280;37452;51.938;4.624;2023-05-12T00:46:01;76962.03;;;-142.75;100.00
41632;BME280;37452;51.938;4.624;2023-05-12T00:48:27;76956.13;;;-142.75;100.00
41632;BME280;37452;51.938;4.624;2023-05-12T00:50:53;76956.13;;;-142.75;100.00
41632;BME280;37452;51.938;4.624;2023-05-12T00:53:18;76946.28;;;-142.75;100.00
41632;BME280;37452;51.938;4.624;2023-05-12T00:55:43;76952.19;;;-142.75;100.00
41632;BME280;37452;51.938;4.624;2023-05-12T00:58:08;76962.03;;;-142.75;100.00
41632;BME280;37452;51.938;4.624;2023-05-12T01:00:34;76948.25;;;-142.75;100.00
41632;BME280;37452;51.938;4.624;2023-05-12T01:02:59;76960.06;;;-142.75;100.00
41632;BME280;37452;51.938;4.624;2023-05-12T01:05:25;76958.09;;;-142.75;100.00
41632;BME280;37452;51.938;4.624;2023-05-12T01:07:52;76995.50;;;-142.75;100.00
41632;BME280;37452;51.938;4.624;2023-05-12T01:10:18;76979.75;;;-142.75;100.00
41632;BME280;37452;51.938;4.624;2023-05-12T01:12:43;76993.53;;;-142.75;100.00
41632;BME280;37452;51.938;4.624;2023-05-12T01:15:09;76971.88;;;-142.75;100.00
41632;BME280;37452;51.938;4.624;2023-05-12T01:17:34;76977.78;;;-142.75;100.00
41632;BME280;37452;51.938;4.624;2023-05-12T01:20:01;76993.53;;;-142.75;100.00
41632;BME280;37452;51.938;4.624;2023-05-12T01:22:28;77007.31;;;-142.75;100.00
41632;BME280;37452;51.938;4.624;2023-05-12T01:24:58;77007.31;;;-142.75;100.00
41632;BME280;37452;51.938;4.624;2023-05-12T01:27:25;76999.44;;;-142.75;100.00
41632;BME280;37452;51.938;4.624;2023-05-12T01:29:51;76991.56;;;-142.75;100.00
41632;BME280;37452;51.938;4.624;2023-05-12T01:32:17;76995.50;;;-142.75;100.00
41632;BME280;37452;51.938;4.624;2023-05-12T01:34:42;76993.53;;;-142.75;100.00
41632;BME280;37452;51.938;4.624;2023-05-12T01:37:08;76999.44;;;-142.75;100.00
41632;BME280;37452;51.938;4.624;2023-05-12T01:39:34;76999.44;;;-142.75;100.00
41632;BME280;37452;51.938;4.624;2023-05-12T01:41:59;77007.31;;;-142.75;100.00
41632;BME280;37452;51.938;4.624;2023-05-12T01:44:25;77007.31;;;-142.75;100.00
41632;BME280;37452;51.938;4.624;2023-05-12T01:46:50;76989.59;;;-142.75;100.00
41632;BME280;37452;51.938;4.624;2023-05-12T01:49:15;77003.38;;;-142.75;100.00
41632;BME280;37452;51.938;4.624;2023-05-12T01:51:40;77003.38;;;-142.75;100.00
41632;BME280;37452;51.938;4.624;2023-05-12T01:54:06;76991.56;;;-142.75;100.00
41632;BME280;37452;51.938;4.624;2023-05-12T01:56:31;76999.44;;;-142.75;100.00
41632;BME280;37452;51.938;4.624;2023-05-12T01:58:56;77001.41;;;-142.75;100.00
41632;BME280;37452;51.938;4.624;2023-05-12T02:01:21;77011.25;;;-142.75;100.00
41632;BME280;37452;51.938;4.624;2023-05-12T02:03:49;77001.41;;;-142.75;100.00
41632;BME280;37452;51.938;4.624;2023-05-12T02:06:15;77003.38;;;-142.75;100.00
41632;BME280;37452;51.938;4.624;2023-05-12T02:08:41;77017.16;;;-142.75;100.00
41632;BME280;37452;51.938;4.624;2023-05-12T02:11:06;77019.13;;;-142.75;100.00
41632;BME280;37452;51.938;4.624;2023-05-12T02:13:32;77021.09;;;-142.75;100.00
41632;BME280;37452;51.938;4.624;2023-05-12T02:15:58;77030.94;;;-142.75;100.00
41632;BME280;37452;51.938;4.624;2023-05-12T02:18:23;77023.06;;;-142.75;100.00
41632;BME280;37452;51.938;4.624;2023-05-12T02:20:48;77011.25;;;-142.75;100.00
41632;BME280;37452;51.938;4.624;2023-05-12T02:23:13;77021.09;;;-142.75;100.00
41632;BME280;37452;51.938;4.624;2023-05-12T02:25:39;77019.13;;;-142.75;100.00
41632;BME280;37452;51.938;4.624;2023-05-12T02:28:04;77013.22;;;-142.75;100.00
41632;BME280;37452;51.938;4.624;2023-05-12T02:30:32;77028.97;;;-142.75;100.00
41632;BME280;37452;51.938;4.624;2023-05-12T02:32:58;77028.97;;;-142.75;100.00
41632;BME280;37452;51.938;4.624;2023-05-12T02:35:23;77032.91;;;-142.75;100.00
41632;BME280;37452;51.938;4.624;2023-05-12T02:37:48;77019.13;;;-142.75;100.00
41632;BME280;37452;51.938;4.624;2023-05-12T02:40:13;77021.09;;;-142.75;100.00
41632;BME280;37452;51.938;4.624;2023-05-12T02:42:38;77019.13;;;-142.75;100.00
41632;BME280;37452;51.938;4.624;2023-05-12T02:45:04;77015.19;;;-142.75;100.00
41632;BME280;37452;51.938;4.624;2023-05-12T02:47:29;77019.13;;;-142.75;100.00
41632;BME280;37452;51.938;4.624;2023-05-12T02:49:56;77001.41;;;-142.75;100.00
41632;BME280;37452;51.938;4.624;2023-05-12T02:52:22;77001.41;;;-142.75;100.00
41632;BME280;37452;51.938;4.624;2023-05-12T02:54:47;76991.56;;;-142.75;100.00
41632;BME280;37452;51.938;4.624;2023-05-12T02:57:12;76989.59;;;-142.75;100.00
41632;BME280;37452;51.938;4.624;2023-05-12T02:59:37;76991.56;;;-142.75;100.00
41632;BME280;37452;51.938;4.624;2023-05-12T03:02:03;77005.34;;;-142.75;100.00
41632;BME280;37452;51.938;4.624;2023-05-12T03:04:29;76981.72;;;-142.75;100.00
41632;BME280;37452;51.938;4.624;2023-05-12T03:06:55;76975.81;;;-142.75;100.00
41632;BME280;37452;51.938;4.624;2023-05-12T03:09:20;76979.75;;;-142.75;100.00
41632;BME280;37452;51.938;4.624;2023-05-12T03:11:46;76991.56;;;-142.75;100.00
41632;BME280;37452;51.938;4.624;2023-05-12T03:14:11;76991.56;;;-142.75;100.00
41632;BME280;37452;51.938;4.624;2023-05-12T03:16:36;76991.56;;;-142.75;100.00
41632;BME280;37452;51.938;4.624;2023-05-12T03:19:02;76995.50;;;-142.75;100.00
41632;BME280;37452;51.938;4.624;2023-05-12T03:21:28;76985.66;;;-142.75;100.00
41632;BME280;37452;51.938;4.624;2023-05-12T03:23:54;76981.72;;;-142.75;100.00
41632;BME280;37452;51.938;4.624;2023-05-12T03:26:19;76975.81;;;-142.75;100.00
41632;BME280;37452;51.938;4.624;2023-05-12T03:28:44;76977.78;;;-142.75;100.00
41632;BME280;37452;51.938;4.624;2023-05-12T03:31:09;76971.88;;;-142.75;100.00
41632;BME280;37452;51.938;4.624;2023-05-12T03:33:34;76983.69;;;-142.75;100.00
41632;BME280;37452;51.938;4.624;2023-05-12T03:36:00;76983.69;;;-142.75;100.00
41632;BME280;37452;51.938;4.624;2023-05-12T03:38:25;76971.88;;;-142.75;100.00
41632;BME280;37452;51.938;4.624;2023-05-12T03:40:50;76975.81;;;-142.75;100.00
41632;BME280;37452;51.938;4.624;2023-05-12T03:43:18;76971.88;;;-142.75;100.00
41632;BME280;37452;51.938;4.624;2023-05-12T03:45:43;76971.88;;;-142.75;100.00
41632;BME280;37452;51.938;4.624;2023-05-12T03:48:08;76967.94;;;-142.75;100.00
41632;BME280;37452;51.938;4.624;2023-05-12T03:50:34;76958.09;;;-142.75;100.00
41632;BME280;37452;51.938;4.624;2023-05-12T03:52:59;76964.00;;;-142.75;100.00
41632;BME280;37452;51.938;4.624;2023-05-12T03:55:24;76960.06;;;-142.75;100.00
41632;BME280;37452;51.938;4.624;2023-05-12T03:57:50;76950.22;;;-142.75;100.00
41632;BME280;37452;51.938;4.624;2023-05-12T04:00:15;76934.47;;;-142.75;100.00
41632;BME280;37452;51.938;4.624;2023-05-12T04:02:41;76944.31;;;-142.75;100.00
41632;BME280;37452;51.938;4.624;2023-05-12T04:05:06;76930.53;;;-142.75;100.00
41632;BME280;37452;51.938;4.624;2023-05-12T04:07:32;76924.63;;;-142.75;100.00
41632;BME280;37452;51.938;4.624;2023-05-12T04:09:58;76924.63;;;-142.75;100.00
41632;BME280;37452;51.938;4.624;2023-05-12T04:12:23;76928.56;;;-142.75;100.00
41632;BME280;37452;51.938;4.624;2023-05-12T04:14:49;76908.88;;;-142.75;100.00
41632;BME280;37452;51.938;4.624;2023-05-12T04:17:14;76928.56;;;-142.75;100.00
41632;BME280;37452;51.938;4.624;2023-05-12T04:19:40;76918.72;;;-142.75;100.00
41632;BME280;37452;51.938;4.624;2023-05-12T04:22:05;76906.91;;;-142.75;100.00
41632;BME280;37452;51.938;4.624;2023-05-12T04:24:30;76912.81;;;-142.75;100.00
41632;BME280;37452;51.938;4.624;2023-05-12T04:26:56;76914.78;;;-142.75;100.00
41632;BME280;37452;51.938;4.624;2023-05-12T04:29:21;76897.06;;;-142.75;100.00
41632;BME280;37452;51.938;4.624;2023-05-12T04:31:46;76912.81;;;-142.75;100.00
41632;BME280;37452;51.938;4.624;2023-05-12T04:34:12;76910.84;;;-142.75;100.00
41632;BME280;37452;51.938;4.624;2023-05-12T04:36:37;76901.00;;;-142.75;100.00
41632;BME280;37452;51.938;4.624;2023-05-12T04:39:02;76897.06;;;-142.75;100.00
41632;BME280;37452;51.938;4.624;2023-05-12T04:41:28;76893.13;;;-142.75;100.00
41632;BME280;37452;51.938;4.624;2023-05-12T04:43:53;76873.44;;;-142.75;100.00
41632;BME280;37452;51.938;4.624;2023-05-12T04:46:19;76875.41;;;-142.75;100.00
41632;BME280;37452;51.938;4.624;2023-05-12T04:48:44;76881.31;;;-142.75;100.00
41632;BME280;37452;51.938;4.624;2023-05-12T04:51:10;76863.59;;;-142.75;100.00
41632;BME280;37452;51.938;4.624;2023-05-12T04:53:35;76859.66;;;-142.75;100.00
41632;BME280;37452;51.938;4.624;2023-05-12T04:56:01;76861.63;;;-142.75;100.00
41632;BME280;37452;51.938;4.624;2023-05-12T04:58:26;76849.81;;;-142.75;100.00
41632;BME280;37452;51.938;4.624;2023-05-12T05:00:51;76836.03;;;-142.75;100.00
41632;BME280;37452;51.938;4.624;2023-05-12T05:03:17;76838.00;;;-142.75;100.00
41632;BME280;37452;51.938;4.624;2023-05-12T05:05:42;76834.06;;;-142.75;100.00
41632;BME280;37452;51.938;4.624;2023-05-12T05:08:07;76830.13;;;-142.75;100.00
41632;BME280;37452;51.938;4.624;2023-05-12T05:10:32;76822.25;;;-142.75;100.00
41632;BME280;37452;51.938;4.624;2023-05-12T05:12:58;76822.25;;;-142.75;100.00
41632;BME280;37452;51.938;4.624;2023-05-12T05:15:23;76816.34;;;-142.75;100.00
41632;BME280;37452;51.938;4.624;2023-05-12T05:17:48;76832.09;;;-142.75;100.00
41632;BME280;37452;51.938;4.624;2023-05-12T05:20:14;76826.19;;;-142.75;100.00
41632;BME280;37452;51.938;4.624;2023-05-12T05:22:39;76822.25;;;-142.75;100.00
41632;BME280;37452;51.938;4.624;2023-05-12T05:25:05;76816.34;;;-142.75;100.00
41632;BME280;37452;51.938;4.624;2023-05-12T05:27:30;76822.25;;;-142.75;100.00
41632;BME280;37452;51.938;4.624;2023-05-12T05:29:55;76802.56;;;-142.75;100.00
41632;BME280;37452;51.938;4.624;2023-05-12T05:32:21;76798.66;;;-142.75;100.00
41632;BME280;37452;51.938;4.624;2023-05-12T05:34:46;76806.50;;;-142.75;100.00
41632;BME280;37452;51.938;4.624;2023-05-12T05:37:11;76794.69;;;-142.75;100.00
41632;BME280;37452;51.938;4.624;2023-05-12T05:39:37;76788.81;;;-142.75;100.00
41632;BME280;37452;51.938;4.624;2023-05-12T05:42:02;76778.97;;;-142.75;100.00
41632;BME280;37452;51.938;4.624;2023-05-12T05:44:27;76769.13;;;-142.75;100.00
41632;BME280;37452;51.938;4.624;2023-05-12T05:46:53;76767.16;;;-142.75;100.00
41632;BME280;37452;51.938;4.624;2023-05-12T05:49:18;76786.84;;;-142.75;100.00
41632;BME280;37452;51.938;4.624;2023-05-12T05:51:43;76761.25;;;-142.75;100.00
41632;BME280;37452;51.938;4.624;2023-05-12T05:54:09;76763.22;;;-142.75;100.00
41632;BME280;37452;51.938;4.624;2023-05-12T05:56:34;76767.16;;;-142.75;100.00
41632;BME280;37452;51.938;4.624;2023-05-12T05:59:00;76753.38;;;-142.75;100.00
41632;BME280;37452;51.938;4.624;2023-05-12T06:01:27;76755.34;;;-142.75;100.00
41632;BME280;37452;51.938;4.624;2023-05-12T06:03:52;76747.47;;;-142.75;100.00
41632;BME280;37452;51.938;4.624;2023-05-12T06:06:17;76763.22;;;-142.75;100.00
41632;BME280;37452;51.938;4.624;2023-05-12T06:08:43;76763.22;;;-142.75;100.00
41632;BME280;37452;51.938;4.624;2023-05-12T06:11:08;76761.25;;;-142.75;100.00
41632;BME280;37452;51.938;4.624;2023-05-12T06:13:33;76765.19;;;-142.75;100.00
41632;BME280;37452;51.938;4.624;2023-05-12T06:15:58;76753.38;;;-142.75;100.00
41632;BME280;37452;51.938;4.624;2023-05-12T06:18:23;76751.41;;;-142.75;100.00
41632;BME280;37452;51.938;4.624;2023-05-12T06:20:48;76755.34;;;-142.75;100.00
41632;BME280;37452;51.938;4.624;2023-05-12T06:23:14;76773.06;;;-142.75;100.00
41632;BME280;37452;51.938;4.624;2023-05-12T06:25:39;76778.97;;;-142.75;100.00
41632;BME280;37452;51.938;4.624;2023-05-12T06:28:04;76788.81;;;-142.75;100.00
41632;BME280;37452;51.938;4.624;2023-05-12T06:30:29;76778.97;;;-142.75;100.00
41632;BME280;37452;51.938;4.624;2023-05-12T06:32:54;76767.16;;;-142.75;100.00
41632;BME280;37452;51.938;4.624;2023-05-12T06:35:20;76751.41;;;-142.75;100.00
41632;BME280;37452;51.938;4.624;2023-05-12T06:37:45;76737.63;;;-142.75;100.00
41632;BME280;37452;51.938;4.624;2023-05-12T06:40:14;76714.00;;;-142.75;100.00
41632;BME280;37452;51.938;4.624;2023-05-12T06:42:40;76712.03;;;-142.75;100.00
41632;BME280;37452;51.938;4.624;2023-05-12T06:45:06;76717.94;;;-142.75;100.00
41632;BME280;37452;51.938;4.624;2023-05-12T06:47:31;76721.88;;;-142.75;100.00
41632;BME280;37452;51.938;4.624;2023-05-12T06:49:57;76712.03;;;-142.75;100.00
41632;BME280;37452;51.938;4.624;2023-05-12T06:52:22;76712.03;;;-142.75;100.00
41632;BME280;37452;51.938;4.624;2023-05-12T06:54:48;76714.00;;;-142.75;100.00
41632;BME280;37452;51.938;4.624;2023-05-12T06:57:13;76719.91;;;-142.75;100.00
41632;BME280;37452;51.938;4.624;2023-05-12T06:59:38;76714.00;;;-142.75;100.00
41632;BME280;37452;51.938;4.624;2023-05-12T07:02:03;76725.81;;;-142.75;100.00
41632;BME280;37452;51.938;4.624;2023-05-12T07:04:29;76725.81;;;-142.75;100.00
41632;BME280;37452;51.938;4.624;2023-05-12T07:06:54;76735.66;;;-142.75;100.00
41632;BME280;37452;51.938;4.624;2023-05-12T07:09:20;76745.50;;;-142.75;100.00
41632;BME280;37452;51.938;4.624;2023-05-12T07:11:46;76739.59;;;-142.75;100.00
41632;BME280;37452;51.938;4.624;2023-05-12T07:14:11;76721.88;;;-142.75;100.00
41632;BME280;37452;51.938;4.624;2023-05-12T07:16:36;76710.06;;;-142.75;100.00
41632;BME280;37452;51.938;4.624;2023-05-12T07:19:02;76719.91;;;-142.75;100.00
41632;BME280;37452;51.938;4.624;2023-05-12T07:21:29;76712.03;;;-142.75;100.00
41632;BME280;37452;51.938;4.624;2023-05-12T07:23:55;76698.25;;;-142.75;100.00
41632;BME280;37452;51.938;4.624;2023-05-12T07:26:21;76702.19;;;-142.75;100.00
41632;BME280;37452;51.938;4.624;2023-05-12T07:28:48;76674.63;;;-142.75;100.00
41632;BME280;37452;51.938;4.624;2023-05-12T07:31:13;76678.56;;;-142.75;100.00
41632;BME280;37452;51.938;4.624;2023-05-12T07:33:38;76637.22;;;-142.75;100.00
41632;BME280;37452;51.938;4.624;2023-05-12T07:36:03;76633.28;;;-142.75;100.00
41632;BME280;37452;51.938;4.624;2023-05-12T07:38:29;76643.13;;;-142.75;100.00
41632;BME280;37452;51.938;4.624;2023-05-12T07:40:54;76637.22;;;-142.75;100.00
41632;BME280;37452;51.938;4.624;2023-05-12T07:43:19;76643.13;;;-142.75;100.00
41632;BME280;37452;51.938;4.624;2023-05-12T07:45:45;76654.94;;;-142.75;100.00
41632;BME280;37452;51.938;4.624;2023-05-12T07:48:10;76656.91;;;-142.75;100.00
41632;BME280;37452;51.938;4.624;2023-05-12T07:50:36;76700.22;;;-142.75;100.00
41632;BME280;37452;51.938;4.624;2023-05-12T07:53:01;76688.41;;;-142.75;100.00
41632;BME280;37452;51.938;4.624;2023-05-12T07:55:26;76664.78;;;-142.75;100.00
41632;BME280;37452;51.938;4.624;2023-05-12T07:57:51;76692.34;;;-142.75;100.00
41632;BME280;37452;51.938;4.624;2023-05-12T08:00:17;76670.69;;;-142.75;100.00
41632;BME280;37452;51.938;4.624;2023-05-12T08:02:42;76678.56;;;-142.75;100.00
41632;BME280;37452;51.938;4.624;2023-05-12T08:05:07;76684.47;;;-142.75;100.00
41632;BME280;37452;51.938;4.624;2023-05-12T08:07:33;76678.56;;;-142.75;100.00
41632;BME280;37452;51.938;4.624;2023-05-12T08:09:59;76698.25;;;-142.75;100.00
41632;BME280;37452;51.938;4.624;2023-05-12T08:12:24;76700.22;;;-142.75;100.00
41632;BME280;37452;51.938;4.624;2023-05-12T08:14:49;76676.59;;;-142.75;100.00
41632;BME280;37452;51.938;4.624;2023-05-12T08:17:15;76690.38;;;-142.75;100.00
41632;BME280;37452;51.938;4.624;2023-05-12T08:19:40;76712.03;;;-142.75;100.00
41632;BME280;37452;51.938;4.624;2023-05-12T08:22:05;76723.84;;;-142.75;100.00
41632;BME280;37452;51.938;4.624;2023-05-12T08:24:30;76710.06;;;-142.75;100.00
41632;BME280;37452;51.938;4.624;2023-05-12T08:26:55;76714.00;;;-142.75;100.00
41632;BME280;37452;51.938;4.624;2023-05-12T08:29:21;76698.25;;;-142.75;100.00
41632;BME280;37452;51.938;4.624;2023-05-12T08:31:46;76692.34;;;-142.75;100.00
41632;BME280;37452;51.938;4.624;2023-05-12T08:34:11;76676.59;;;-142.75;100.00
41632;BME280;37452;51.938;4.624;2023-05-12T08:36:39;76686.44;;;-142.75;100.00
41632;BME280;37452;51.938;4.624;2023-05-12T08:39:05;76668.72;;;-142.75;100.00
41632;BME280;37452;51.938;4.624;2023-05-12T08:41:35;76631.31;;;-142.75;100.00
41632;BME280;37452;51.938;4.624;2023-05-12T08:44:00;76649.03;;;-142.75;100.00
41632;BME280;37452;51.938;4.624;2023-05-12T08:46:26;76645.09;;;-142.75;100.00
41632;BME280;37452;51.938;4.624;2023-05-12T08:48:52;76617.53;;;-142.75;100.00
41632;BME280;37452;51.938;4.624;2023-05-12T08:51:18;76643.13;;;-142.75;100.00
41632;BME280;37452;51.938;4.624;2023-05-12T08:53:43;76651.00;;;-142.75;100.00
41632;BME280;37452;51.938;4.624;2023-05-12T08:56:11;76597.84;;;-142.75;100.00
41632;BME280;37452;51.938;4.624;2023-05-12T08:58:37;76550.59;;;-142.75;100.00
41632;BME280;37452;51.938;4.624;2023-05-12T09:01:03;76554.53;;;-142.75;100.00
41632;BME280;37452;51.938;4.624;2023-05-12T09:03:30;76562.41;;;-142.75;100.00
41632;BME280;37452;51.938;4.624;2023-05-12T09:05:56;76540.75;;;-142.75;100.00
41632;BME280;37452;51.938;4.624;2023-05-12T09:08:22;76593.91;;;-142.75;100.00
41632;BME280;37452;51.938;4.624;2023-05-12T09:10:48;76562.41;;;-142.75;100.00
41632;BME280;37452;51.938;4.624;2023-05-12T09:13:36;76554.53;;;-142.75;100.00
41632;BME280;37452;51.938;4.624;2023-05-12T09:16:02;76534.84;;;-142.75;100.00
41632;BME280;37452;51.938;4.624;2023-05-12T09:21:13;76483.69;;;-142.75;100.00
41632;BME280;37452;51.938;4.624;2023-05-12T09:23:38;76467.94;;;-142.75;100.00
41632;BME280;37452;51.938;4.624;2023-05-12T09:26:04;76460.06;;;-142.75;100.00
41632;BME280;37452;51.938;4.624;2023-05-12T09:28:38;76418.72;;;-142.75;100.00
41632;BME280;37452;51.938;4.624;2023-05-12T09:31:19;76446.28;;;-142.75;100.00
41632;BME280;37452;51.938;4.624;2023-05-12T09:33:45;76450.22;;;-142.75;100.00
41632;BME280;37452;51.938;4.624;2023-05-12T09:36:11;76473.84;;;-142.75;100.00
41632;BME280;37452;51.938;4.624;2023-05-12T09:38:36;76430.53;;;-142.75;100.00
41632;BME280;37452;51.938;4.624;2023-05-12T09:41:01;76420.69;;;-142.75;100.00
41632;BME280;37452;51.938;4.624;2023-05-12T09:43:27;76397.06;;;-142.75;100.00
41632;BME280;37452;51.938;4.624;2023-05-12T09:45:52;76416.75;;;-142.75;100.00
41632;BME280;37452;51.938;4.624;2023-05-12T09:48:19;76444.31;;;-142.75;100.00
41632;BME280;37452;51.938;4.624;2023-05-12T09:50:46;76418.72;;;-142.75;100.00
41632;BME280;37452;51.938;4.624;2023-05-12T09:53:11;76410.84;;;-142.75;100.00
41632;BME280;37452;51.938;4.624;2023-05-12T09:55:37;76310.47;;;-142.75;100.00
41632;BME280;37452;51.938;4.624;2023-05-12T09:58:07;76288.81;;;-142.75;100.00
41632;BME280;37452;51.938;4.624;2023-05-12T10:00:32;76334.09;;;-142.75;100.00
41632;BME280;37452;51.938;4.624;2023-05-12T10:02:58;76288.81;;;-142.75;100.00
41632;BME280;37452;51.938;4.624;2023-05-12T10:05:24;76212.03;;;-142.75;100.00
41632;BME280;37452;51.938;4.624;2023-05-12T10:07:50;76170.72;;;-142.75;100.00
41632;BME280;37452;51.938;4.624;2023-05-12T10:10:18;76200.25;;;-142.75;100.00
41632;BME280;37452;51.938;4.624;2023-05-12T10:12:45;76208.09;;;-142.75;100.00
41632;BME280;37452;51.938;4.624;2023-05-12T10:15:11;76176.63;;;-142.75;100.00
41632;BME280;37452;51.938;4.624;2023-05-12T10:17:37;76162.84;;;-142.75;100.00
41632;BME280;37452;51.938;4.624;2023-05-12T10:20:03;76143.16;;;-142.75;100.00
41632;BME280;37452;51.938;4.624;2023-05-12T10:22:31;76219.91;;;-142.75;100.00
41632;BME280;37452;51.938;4.624;2023-05-12T10:24:57;76196.31;;;-142.75;100.00
41632;BME280;37452;51.938;4.624;2023-05-12T10:27:23;76200.25;;;-142.75;100.00
41632;BME280;37452;51.938;4.624;2023-05-12T10:29:49;76135.28;;;-142.75;100.00
41632;BME280;37452;51.938;4.624;2023-05-12T10:32:15;76097.88;;;-142.75;100.00
41632;BME280;37452;51.938;4.624;2023-05-12T10:34:40;76196.31;;;-142.75;96.47
41632;BME280;37452;51.938;4.624;2023-05-12T10:37:09;76184.50;;;-142.75;98.26
41632;BME280;37452;51.938;4.624;2023-05-12T10:39:47;76210.06;;;-142.75;100.00
41632;BME280;37452;51.938;4.624;2023-05-12T10:42:15;76204.16;;;-142.75;100.00
41632;BME280;37452;51.938;4.624;2023-05-12T10:44:53;76223.84;;;-142.75;100.00
41632;BME280;37452;51.938;4.624;2023-05-12T10:47:25;76231.72;;;-142.75;100.00
41632;BME280;37452;51.938;4.624;2023-05-12T10:49:59;76257.31;;;-142.75;99.59
41632;BME280;37452;51.938;4.624;2023-05-12T10:52:25;76267.16;;;-142.75;96.59
41632;BME280;37452;51.938;4.624;2023-05-12T10:54:50;76284.88;;;-142.75;93.57
41632;BME280;37452;51.938;4.624;2023-05-12T10:57:23;76269.13;;;-142.75;98.97
41632;BME280;37452;51.938;4.624;2023-05-12T10:59:51;76219.91;;;-142.75;100.00
41632;BME280;37452;51.938;4.624;2023-05-12T11:02:23;76204.16;;;-142.75;97.56
41632;BME280;37452;51.938;4.624;2023-05-12T11:04:57;76123.47;;;-142.75;97.46
41632;BME280;37452;51.938;4.624;2023-05-12T11:07:24;76078.19;;;-142.75;97.54
41632;BME280;37452;51.938;4.624;2023-05-12T11:09:52;76074.25;;;-142.75;94.80
41632;BME280;37452;51.938;4.624;2023-05-12T11:12:18;76109.69;;;-142.75;92.22
41632;BME280;37452;51.938;4.624;2023-05-12T11:14:44;76182.53;;;-142.75;97.11
41632;BME280;37452;51.938;4.624;2023-05-12T11:17:10;76145.13;;;-142.75;99.92
41632;BME280;37452;51.938;4.624;2023-05-12T11:19:35;76113.63;;;-142.75;90.71
41632;BME280;37452;51.938;4.624;2023-05-12T11:22:04;76121.50;;;-142.75;89.44
41632;BME280;37452;51.938;4.624;2023-05-12T11:24:32;76156.94;;;-142.75;86.78
41632;BME280;37452;51.938;4.624;2023-05-12T11:26:57;76180.56;;;-142.75;85.06
41632;BME280;37452;51.938;4.624;2023-05-12T11:29:23;76206.13;;;-142.75;86.47
41632;BME280;37452;51.938;4.624;2023-05-12T11:31:49;76251.41;;;-142.75;86.78
41632;BME280;37452;51.938;4.624;2023-05-12T11:34:15;76255.34;;;-142.75;90.28
41632;BME280;37452;51.938;4.624;2023-05-12T11:36:41;76251.41;;;-142.75;90.88
41632;BME280;37452;51.938;4.624;2023-05-12T11:39:16;76227.78;;;-142.75;91.31
41632;BME280;37452;51.938;4.624;2023-05-12T11:41:42;76221.88;;;-142.75;85.69
41632;BME280;37452;51.938;4.624;2023-05-12T11:44:14;76168.75;;;-142.75;85.47
41632;BME280;37452;51.938;4.624;2023-05-12T11:46:40;76115.59;;;-142.75;85.38
41632;BME280;37452;51.938;4.624;2023-05-12T11:49:08;76101.81;;;-142.75;84.44
41632;BME280;37452;51.938;4.624;2023-05-12T11:51:34;76137.25;;;-142.75;79.41
41632;BME280;37452;51.938;4.624;2023-05-12T11:54:00;76160.88;;;-142.75;79.17
41632;BME280;37452;51.938;4.624;2023-05-12T11:56:25;76123.47;;;-142.75;78.78
41632;BME280;37452;51.938;4.624;2023-05-12T11:58:54;76119.53;;;-142.75;76.81
41632;BME280;37452;51.938;4.624;2023-05-12T12:01:20;76121.50;;;-142.75;74.32
41632;BME280;37452;51.938;4.624;2023-05-12T12:03:45;76113.63;;;-142.75;74.50
41632;BME280;37452;51.938;4.624;2023-05-12T12:06:12;76156.94;;;-142.75;75.37
41632;BME280;37452;51.938;4.624;2023-05-12T12:08:47;76115.59;;;-142.75;74.11
41632;BME280;37452;51.938;4.624;2023-05-12T12:11:13;76127.41;;;-142.75;75.20
41632;BME280;37452;51.938;4.624;2023-05-12T12:13:38;76160.88;;;-142.75;73.46
41632;BME280;37452;51.938;4.624;2023-05-12T12:16:11;76149.06;;;-142.75;77.16
41632;BME280;37452;51.938;4.624;2023-05-12T12:18:36;76180.56;;;-142.75;74.41
41632;BME280;37452;51.938;4.624;2023-05-12T12:21:01;76180.56;;;-142.75;75.82
41632;BME280;37452;51.938;4.624;2023-05-12T12:23:26;76176.63;;;-142.75;75.30
41632;BME280;37452;51.938;4.624;2023-05-12T12:25:52;76221.88;;;-142.75;73.98
41632;BME280;37452;51.938;4.624;2023-05-12T12:28:17;76247.47;;;-142.75;74.44